Time;durP1;ratioP1;P1;durP2;ratioP2;P2;SDS_P1;SDS_P2;PMS_P1;PMS_P2;Temp;Humidity;BMP_temperature;BMP_pressure;BME280_temperature;BME280_humidity;BME280_pressure;Samples;Min_cycle;Max_cycle;Signal;HPM_P1;HPM_P2
2022/12/05 00:02:32;;;;;;;2.72;1.60;;;;;;;;;;5000314;28;20516;-64
2022/12/05 00:05:03;;;;;;;4.15;2.55;;;;;;;;;;4960766;28;20047;-63
2022/12/05 00:07:34;;;;;;;2.67;1.95;;;;;;;;;;4961615;28;20051;-64
2022/12/05 00:10:06;;;;;;;3.22;1.70;;;;;;;;;;4969965;28;20553;-63
2022/12/05 00:12:36;;;;;;;3.65;1.85;;;;;;;;;;4910673;29;20043;-63
2022/12/05 00:15:11;;;;;;;3.80;1.70;;;;;;;;;;4937408;29;20059;-62
2022/12/05 00:17:41;;;;;;;4.05;1.67;;;;;;;;;;4932340;29;20056;-62
2022/12/05 00:20:12;;;;;;;3.42;1.38;;;;;;;;;;4884058;29;20457;-62
2022/12/05 00:22:42;;;;;;;3.17;1.90;;;;;;;;;;4932906;29;20060;-64
2022/12/05 00:25:12;;;;;;;2.65;1.50;;;;;;;;;;4931907;29;20066;-63
2022/12/05 00:27:42;;;;;;;3.15;1.50;;;;;;;;;;4926594;29;20051;-63
2022/12/05 00:30:13;;;;;;;2.80;1.42;;;;;;;;;;4946640;29;20068;-65
2022/12/05 00:32:43;;;;;;;4.30;1.95;;;;;;;;;;4931543;29;20043;-62
2022/12/05 00:35:13;;;;;;;3.80;1.90;;;;;;;;;;4930925;29;20067;-62
2022/12/05 00:37:43;;;;;;;7.72;1.98;;;;;;;;;;4914434;29;20048;-62
2022/12/05 00:40:13;;;;;;;3.35;1.80;;;;;;;;;;4929216;29;20048;-62
2022/12/05 00:42:43;;;;;;;4.13;1.52;;;;;;;;;;4913761;28;20073;-63
2022/12/05 00:45:19;;;;;;;2.88;1.73;;;;;;;;;;4989167;28;20058;-65
2022/12/05 00:47:50;;;;;;;3.42;2.28;;;;;;;;;;4984424;28;20050;-64
2022/12/05 00:50:20;;;;;;;4.75;1.80;;;;;;;;;;4998067;28;20046;-63
2022/12/05 00:52:50;;;;;;;2.80;2.08;;;;;;;;;;4968125;28;20509;-62
2022/12/05 00:55:20;;;;;;;3.17;1.40;;;;;;;;;;5009020;28;20052;-62
2022/12/05 00:57:50;;;;;;;4.82;2.70;;;;;;;;;;4961319;28;20057;-64
2022/12/05 01:00:20;;;;;;;9.55;2.20;;;;;;;;;;4929041;28;20075;-62
2022/12/05 01:02:51;;;;;;;3.83;2.05;;;;;;;;;;5008597;28;20549;-64
2022/12/05 01:05:21;;;;;;;5.82;2.10;;;;;;;;;;4984265;28;20054;-62
2022/12/05 01:07:55;;;;;;;5.43;2.10;;;;;;;;;;5015859;28;20057;-63
2022/12/05 01:10:25;;;;;;;3.80;2.58;;;;;;;;;;4988888;28;20046;-63
2022/12/05 01:12:55;;;;;;;3.90;2.28;;;;;;;;;;4989066;28;20522;-63
2022/12/05 01:15:26;;;;;;;7.15;1.88;;;;;;;;;;4969006;28;20062;-63
2022/12/05 01:17:56;;;;;;;3.38;1.98;;;;;;;;;;4937193;28;20507;-63
2022/12/05 01:20:26;;;;;;;5.60;2.45;;;;;;;;;;4953827;28;20062;-63
2022/12/05 01:22:56;;;;;;;3.28;1.85;;;;;;;;;;4931156;29;20095;-64
2022/12/05 01:25:25;;;;;;;4.70;2.00;;;;;;;;;;4949562;28;20054;-63
2022/12/05 01:27:56;;;;;;;5.47;2.58;;;;;;;;;;4969925;28;20058;-64
2022/12/05 01:30:26;;;;;;;3.67;1.95;;;;;;;;;;4969712;28;20047;-64
2022/12/05 01:32:56;;;;;;;6.88;2.70;;;;;;;;;;4969660;28;20059;-63
2022/12/05 01:35:26;;;;;;;3.88;1.90;;;;;;;;;;4937570;28;20067;-63
2022/12/05 01:37:56;;;;;;;4.50;1.65;;;;;;;;;;4937490;28;20392;-64
2022/12/05 01:40:26;;;;;;;5.40;1.92;;;;;;;;;;4937378;28;20054;-63
2022/12/05 01:42:56;;;;;;;4.00;2.33;;;;;;;;;;4969639;28;20047;-63
2022/12/05 01:45:34;;;;;;;4.13;2.33;;;;;;;;;;4978756;28;20062;-63
2022/12/05 01:48:13;;;;;;;4.40;1.50;;;;;;;;;;4966266;28;20649;-63
2022/12/05 01:50:45;;;;;;;4.20;2.20;;;;;;;;;;4956802;28;20050;-63
2022/12/05 01:53:16;;;;;;;3.13;2.08;;;;;;;;;;5022463;28;20096;-63
2022/12/05 01:55:49;;;;;;;7.20;2.20;;;;;;;;;;5048126;28;20594;-63
2022/12/05 01:58:19;;;;;;;6.60;1.52;;;;;;;;;;5014432;28;20052;-63
2022/12/05 02:00:49;;;;;;;10.73;2.92;;;;;;;;;;5039261;28;20059;-63
2022/12/05 02:03:21;;;;;;;6.53;2.10;;;;;;;;;;5055012;28;20055;-63
2022/12/05 02:05:53;;;;;;;5.80;2.40;;;;;;;;;;5027746;28;20064;-63
2022/12/05 02:08:23;;;;;;;7.20;2.05;;;;;;;;;;5011380;28;20045;-64
2022/12/05 02:10:55;;;;;;;5.20;2.20;;;;;;;;;;5028363;28;20523;-62
2022/12/05 02:13:27;;;;;;;;;;;;;;;;;;4995641;28;20049;-62
2022/12/05 02:16:08;;;;;;;5.70;2.38;;;;;;;;;;4995961;28;19921;-63
2022/12/05 02:18:57;;;;;;;4.90;2.17;;;;;;;;;;5027920;28;20037;-63
2022/12/05 02:21:45;;;;;;;5.00;2.40;;;;;;;;;;5012463;28;20080;-64
2022/12/05 02:24:44;;;;;;;7.03;2.75;;;;;;;;;;5027833;28;20041;-63
2022/12/05 02:27:54;;;;;;;4.80;2.20;;;;;;;;;;5011531;28;20072;-64
2022/12/05 02:30:25;;;;;;;;;;;;;;;;;;4976819;28;20065;-65
2022/12/05 02:33:09;;;;;;;4.50;2.47;;;;;;;;;;4992404;28;19944;-63
2022/12/05 02:35:46;;;;;;;4.90;2.38;;;;;;;;;;4992831;28;20058;-64
2022/12/05 02:38:21;;;;;;;5.05;2.72;;;;;;;;;;5051581;28;20049;-63
2022/12/05 02:41:09;;;;;;;4.95;2.65;;;;;;;;;;5051816;28;20064;-65
2022/12/05 02:43:55;;;;;;;5.88;3.28;;;;;;;;;;5051766;28;20076;-63
2022/12/05 02:46:28;;;;;;;6.22;2.40;;;;;;;;;;5002495;28;20045;-63
2022/12/05 02:49:05;;;;;;;4.95;2.47;;;;;;;;;;5051517;28;20068;-63
2022/12/05 02:51:46;;;;;;;6.65;3.15;;;;;;;;;;5034493;28;20048;-64
2022/12/05 02:54:30;;;;;;;5.40;2.60;;;;;;;;;;5018182;28;20056;-63
2022/12/05 02:57:01;;;;;;;4.82;1.90;;;;;;;;;;5017956;28;20373;-63
2022/12/05 02:59:31;;;;;;;5.35;2.00;;;;;;;;;;4991811;28;20069;-64
2022/12/05 03:02:01;;;;;;;3.83;2.33;;;;;;;;;;4959386;28;20058;-63
2022/12/05 03:04:32;;;;;;;4.10;1.73;;;;;;;;;;4991949;28;20069;-64
2022/12/05 03:07:11;;;;;;;5.25;2.95;;;;;;;;;;4995171;28;20058;-63
2022/12/05 03:09:59;;;;;;;5.82;2.65;;;;;;;;;;5031366;28;20058;-63
2022/12/05 03:12:37;;;;;;;3.35;2.38;;;;;;;;;;4991278;28;20053;-64
2022/12/05 03:15:21;;;;;;;5.28;2.00;;;;;;;;;;4975181;28;20062;-66
2022/12/05 03:17:57;;;;;;;5.70;1.85;;;;;;;;;;4975886;28;20058;-63
2022/12/05 03:20:50;;;;;;;7.13;2.60;;;;;;;;;;4972083;28;20058;-65
2022/12/05 03:23:24;;;;;;;11.13;2.40;;;;;;;;;;4971749;28;20078;-63
2022/12/05 03:26:16;;;;;;;6.20;2.45;;;;;;;;;;4933216;29;20500;-64
2022/12/05 03:29:23;;;;;;;4.47;2.17;;;;;;;;;;4933601;29;20421;-63
2022/12/05 03:32:05;;;;;;;12.88;2.67;;;;;;;;;;4971896;28;20067;-63
2022/12/05 03:34:53;;;;;;;6.57;2.00;;;;;;;;;;4955821;28;20043;-63
2022/12/05 03:37:49;;;;;;;4.10;2.25;;;;;;;;;;4952068;29;20047;-63
2022/12/05 03:40:35;;;;;;;5.38;2.63;;;;;;;;;;4952052;28;20059;-64
2022/12/05 03:43:40;;;;;;;13.65;3.13;;;;;;;;;;4952608;29;20066;-63
2022/12/05 03:46:10;;;;;;;7.00;2.58;;;;;;;;;;4952253;29;20059;-63
2022/12/05 03:49:06;;;;;;;4.00;2.63;;;;;;;;;;4971491;28;20391;-64
2022/12/05 03:51:53;;;;;;;7.38;3.22;;;;;;;;;;4991046;28;20063;-64
2022/12/05 03:54:38;;;;;;;5.75;2.72;;;;;;;;;;4941678;28;20047;-66
2022/12/05 03:57:30;;;;;;;7.18;2.92;;;;;;;;;;4993226;28;20525;-63
2022/12/05 04:00:09;;;;;;;5.40;2.60;;;;;;;;;;4977809;28;20449;-64
2022/12/05 04:02:55;;;;;;;5.22;2.70;;;;;;;;;;4973631;28;20071;-63
2022/12/05 04:05:28;;;;;;;7.47;2.03;;;;;;;;;;4958583;28;20054;-64
2022/12/05 04:08:03;;;;;;;7.18;2.55;;;;;;;;;;4990757;28;20055;-64
2022/12/05 04:10:47;;;;;;;5.15;2.88;;;;;;;;;;4990830;28;20057;-64
2022/12/05 04:13:39;;;;;;;5.63;2.97;;;;;;;;;;4954751;28;20050;-64
2022/12/05 04:21:36;;;;;;;5.95;3.03;;;;;;;;;;4948312;28;20058;-63
2022/12/05 04:22:21;;;;;;;5.15;2.83;;;;;;;;;;5036679;28;20068;-63
2022/12/05 04:28:11;;;;;;;7.18;3.15;;;;;;;;;;5049500;28;20084;-63
2022/12/05 04:31:02;;;;;;;7.97;3.25;;;;;;;;;;5049613;28;20578;-65
2022/12/05 04:33:51;;;;;;;5.90;2.83;;;;;;;;;;5049421;28;20060;-63
2022/12/05 04:36:33;;;;;;;7.80;3.53;;;;;;;;;;5049525;28;20049;-63
2022/12/05 04:39:08;;;;;;;9.45;3.20;;;;;;;;;;5049548;28;20767;-64
2022/12/05 04:41:53;;;;;;;9.98;3.65;;;;;;;;;;5069260;28;20053;-65
2022/12/05 04:44:32;;;;;;;7.68;3.13;;;;;;;;;;5028883;28;20045;-63
2022/12/05 04:47:05;;;;;;;5.57;3.22;;;;;;;;;;5012979;28;20056;-64
2022/12/05 04:49:37;;;;;;;9.63;3.50;;;;;;;;;;4960711;28;20046;-65
2022/12/05 04:52:09;;;;;;;8.45;4.10;;;;;;;;;;5014898;28;20045;-66
2022/12/05 04:54:51;;;;;;;;;;;;;;;;;;5049138;28;20049;-64
2022/12/05 04:57:30;;;;;;;8.48;2.60;;;;;;;;;;5049216;28;20021;-63
2022/12/05 05:00:00;;;;;;;7.93;3.83;;;;;;;;;;5048732;28;20049;-64
2022/12/05 05:02:42;;;;;;;12.52;4.22;;;;;;;;;;4999477;28;20045;-63
2022/12/05 05:05:15;;;;;;;12.23;4.75;;;;;;;;;;5048476;28;20069;-64
2022/12/05 05:07:51;;;;;;;14.70;4.20;;;;;;;;;;5015939;28;20559;-65
2022/12/05 05:10:42;;;;;;;10.63;4.20;;;;;;;;;;5048869;28;20056;-64
2022/12/05 05:13:12;;;;;;;10.88;3.60;;;;;;;;;;5008855;28;20050;-65
2022/12/05 05:15:42;;;;;;;13.13;4.55;;;;;;;;;;4929168;28;20381;-63
2022/12/05 05:18:12;;;;;;;10.65;4.13;;;;;;;;;;4969892;28;20063;-64
2022/12/05 05:20:42;;;;;;;9.15;3.28;;;;;;;;;;4930837;29;20048;-63
2022/12/05 05:23:13;;;;;;;14.68;4.18;;;;;;;;;;4968624;28;20069;-63
2022/12/05 05:25:43;;;;;;;8.88;4.13;;;;;;;;;;4969815;28;20403;-63
2022/12/05 05:28:13;;;;;;;14.73;4.18;;;;;;;;;;4931189;29;20059;-63
2022/12/05 05:30:42;;;;;;;12.23;5.32;;;;;;;;;;4931486;29;20070;-64
2022/12/05 05:33:12;;;;;;;9.95;3.70;;;;;;;;;;4931422;29;20062;-64
2022/12/05 05:35:42;;;;;;;13.32;4.32;;;;;;;;;;4927700;29;20060;-65
2022/12/05 05:38:12;;;;;;;11.75;5.13;;;;;;;;;;4880679;29;20060;-63
2022/12/05 05:40:42;;;;;;;14.50;4.53;;;;;;;;;;4912413;29;20060;-63
2022/12/05 05:43:11;;;;;;;12.15;3.63;;;;;;;;;;4912268;29;20439;-64
2022/12/05 05:45:41;;;;;;;11.20;3.67;;;;;;;;;;4912247;29;20059;-66
2022/12/05 05:48:11;;;;;;;11.93;5.10;;;;;;;;;;4881293;29;20056;-63
2022/12/05 05:50:41;;;;;;;12.10;3.95;;;;;;;;;;4939001;29;20055;-64
2022/12/05 05:53:11;;;;;;;14.25;4.78;;;;;;;;;;4933911;29;20055;-63
2022/12/05 05:55:42;;;;;;;10.23;4.30;;;;;;;;;;4949707;29;20066;-64
2022/12/05 05:58:11;;;;;;;13.95;4.57;;;;;;;;;;4962186;28;20081;-64
2022/12/05 06:00:41;;;;;;;14.70;4.43;;;;;;;;;;4969099;28;20050;-63
2022/12/05 06:03:11;;;;;;;12.15;4.85;;;;;;;;;;4921434;28;20062;-64
2022/12/05 06:05:41;;;;;;;9.93;5.13;;;;;;;;;;4937601;28;20069;-63
2022/12/05 06:08:16;;;;;;;9.68;4.50;;;;;;;;;;5008077;28;20046;-63
2022/12/05 06:10:46;;;;;;;9.05;4.05;;;;;;;;;;5008408;28;20513;-64
2022/12/05 06:13:16;;;;;;;8.95;3.70;;;;;;;;;;4998410;28;20057;-64
2022/12/05 06:15:46;;;;;;;10.20;5.10;;;;;;;;;;5030924;28;20052;-64
2022/12/05 06:18:15;;;;;;;13.30;4.47;;;;;;;;;;5047904;28;20069;-65
2022/12/05 06:20:53;;;;;;;12.07;4.95;;;;;;;;;;5047787;28;20147;-65
2022/12/05 06:23:26;;;;;;;15.68;4.72;;;;;;;;;;5027531;28;20509;-65
2022/12/05 06:25:56;;;;;;;12.60;4.63;;;;;;;;;;5026910;28;20050;-63
2022/12/05 06:28:26;;;;;;;13.88;5.55;;;;;;;;;;5027744;28;20061;-64
2022/12/05 06:30:56;;;;;;;13.90;5.55;;;;;;;;;;5027885;28;20068;-64
2022/12/05 06:33:28;;;;;;;12.45;5.78;;;;;;;;;;5027840;28;20049;-64
2022/12/05 06:36:03;;;;;;;19.92;5.97;;;;;;;;;;4995963;28;20070;-63
2022/12/05 06:38:33;;;;;;;17.45;5.50;;;;;;;;;;5040027;28;20067;-64
2022/12/05 06:41:13;;;;;;;14.07;4.18;;;;;;;;;;4998058;28;20061;-66
2022/12/05 06:43:44;;;;;;;13.85;4.80;;;;;;;;;;5030941;28;20400;-65
2022/12/05 06:46:16;;;;;;;12.48;4.82;;;;;;;;;;5014511;28;20057;-64
2022/12/05 06:48:46;;;;;;;13.48;5.43;;;;;;;;;;5047982;28;20053;-64
2022/12/05 06:51:16;;;;;;;13.48;5.03;;;;;;;;;;5031197;28;20172;-65
2022/12/05 06:53:47;;;;;;;10.43;4.47;;;;;;;;;;5015005;28;20151;-64
2022/12/05 06:56:19;;;;;;;12.40;4.90;;;;;;;;;;5047393;28;20100;-65
2022/12/05 06:58:51;;;;;;;9.68;4.45;;;;;;;;;;5047557;28;20045;-64
2022/12/05 07:01:39;;;;;;;8.82;4.07;;;;;;;;;;5088811;28;20063;-65
2022/12/05 07:04:15;;;;;;;9.27;3.92;;;;;;;;;;5033988;28;20052;-64
2022/12/05 07:06:48;;;;;;;13.10;4.78;;;;;;;;;;5067663;28;20056;-64
2022/12/05 07:09:22;;;;;;;9.40;3.92;;;;;;;;;;5051396;28;20436;-64
2022/12/05 07:11:52;;;;;;;7.22;4.40;;;;;;;;;;5067670;28;20543;-65
2022/12/05 07:14:22;;;;;;;9.02;5.00;;;;;;;;;;4994601;28;20053;-65
2022/12/05 07:17:12;;;;;;;9.85;4.15;;;;;;;;;;5031011;28;20054;-64
2022/12/05 07:19:43;;;;;;;8.13;3.90;;;;;;;;;;5014700;28;20061;-65
2022/12/05 07:22:13;;;;;;;10.98;3.90;;;;;;;;;;5030941;28;20061;-65
2022/12/05 07:24:44;;;;;;;5.60;3.55;;;;;;;;;;5030314;28;20056;-65
2022/12/05 07:27:15;;;;;;;9.18;3.70;;;;;;;;;;5031095;28;20045;-65
2022/12/05 07:29:55;;;;;;;8.32;3.80;;;;;;;;;;5030864;28;20056;-64
2022/12/05 07:32:26;;;;;;;;;;;;;;;;;;5031327;28;20052;-65
2022/12/05 07:34:57;;;;;;;7.63;4.35;;;;;;;;;;4981605;28;19921;-67
2022/12/05 07:37:27;;;;;;;9.18;3.55;;;;;;;;;;4987912;28;20438;-64
2022/12/05 07:39:57;;;;;;;7.75;3.22;;;;;;;;;;4932905;29;20056;-64
2022/12/05 07:42:29;;;;;;;10.48;3.50;;;;;;;;;;4979041;28;20059;-65
2022/12/05 07:44:59;;;;;;;10.18;4.70;;;;;;;;;;4971653;28;20063;-65
2022/12/05 07:47:30;;;;;;;8.90;4.45;;;;;;;;;;4971768;28;20065;-65
2022/12/05 07:50:00;;;;;;;14.55;4.22;;;;;;;;;;4971563;28;20067;-65
2022/12/05 07:52:31;;;;;;;10.35;4.13;;;;;;;;;;4965703;28;20054;-64
2022/12/05 07:55:01;;;;;;;12.02;3.78;;;;;;;;;;4985005;28;20065;-64
2022/12/05 07:57:30;;;;;;;12.90;3.13;;;;;;;;;;4991066;28;20414;-64
2022/12/05 08:00:00;;;;;;;22.90;5.28;;;;;;;;;;4990855;28;20054;-65
2022/12/05 08:02:39;;;;;;;17.95;5.40;;;;;;;;;;4960908;28;20054;-65
2022/12/05 08:05:10;;;;;;;21.63;4.82;;;;;;;;;;4942827;28;20061;-63
2022/12/05 08:07:41;;;;;;;19.60;4.30;;;;;;;;;;4990774;28;20051;-64
2022/12/05 08:10:11;;;;;;;17.58;4.88;;;;;;;;;;4971053;28;20426;-63
2022/12/05 08:12:41;;;;;;;17.63;5.80;;;;;;;;;;4971223;28;20059;-64
2022/12/05 08:15:11;;;;;;;19.95;5.93;;;;;;;;;;4975692;28;20054;-64
2022/12/05 08:17:41;;;;;;;31.35;7.95;;;;;;;;;;5010298;28;20533;-64
2022/12/05 08:20:11;;;;;;;36.42;8.90;;;;;;;;;;5010219;28;20073;-63
2022/12/05 08:22:41;;;;;;;34.58;8.27;;;;;;;;;;4993315;28;20056;-64
2022/12/05 08:25:11;;;;;;;35.45;10.80;;;;;;;;;;5009165;28;20046;-65
2022/12/05 08:27:41;;;;;;;38.17;8.95;;;;;;;;;;4945111;28;20761;-63
2022/12/05 08:30:11;;;;;;;34.70;9.13;;;;;;;;;;5030821;28;20057;-64
2022/12/05 08:32:41;;;;;;;34.92;7.90;;;;;;;;;;5006596;28;20045;-64
2022/12/05 08:35:11;;;;;;;31.42;8.13;;;;;;;;;;5049378;28;20064;-64
2022/12/05 08:37:41;;;;;;;27.08;7.93;;;;;;;;;;5029352;28;20061;-64
2022/12/05 08:40:11;;;;;;;24.05;7.00;;;;;;;;;;4981052;28;20061;-64
2022/12/05 08:42:41;;;;;;;24.25;7.60;;;;;;;;;;5013396;28;20058;-64
2022/12/05 08:45:11;;;;;;;31.75;8.85;;;;;;;;;;5029204;28;20203;-65
2022/12/05 08:47:40;;;;;;;31.48;9.48;;;;;;;;;;4973845;28;20054;-64
2022/12/05 08:50:10;;;;;;;35.97;8.40;;;;;;;;;;4989632;28;20050;-64
2022/12/05 08:52:41;;;;;;;31.50;7.57;;;;;;;;;;4941727;28;20750;-64
2022/12/05 08:55:11;;;;;;;30.52;7.60;;;;;;;;;;4989536;28;20065;-68
2022/12/05 08:57:41;;;;;;;26.83;8.23;;;;;;;;;;4941612;28;20062;-64
2022/12/05 09:00:11;;;;;;;27.83;9.35;;;;;;;;;;4989498;28;20513;-63
2022/12/05 09:02:41;;;;;;;25.92;8.23;;;;;;;;;;4934617;29;20458;-64
2022/12/05 09:05:12;;;;;;;32.28;6.85;;;;;;;;;;4904370;29;20059;-64
2022/12/05 09:07:58;;;;;;;22.77;7.80;;;;;;;;;;4934965;29;20051;-63
2022/12/05 09:10:28;;;;;;;27.98;7.40;;;;;;;;;;4972057;28;20073;-64
2022/12/05 09:12:58;;;;;;;20.48;7.47;;;;;;;;;;4989672;28;20054;-64
2022/12/05 09:15:28;;;;;;;20.70;9.48;;;;;;;;;;5011885;28;20057;-64
2022/12/05 09:17:58;;;;;;;17.65;6.45;;;;;;;;;;4980292;28;20847;-64
2022/12/05 09:20:28;;;;;;;15.65;6.38;;;;;;;;;;4979758;28;20505;-63
2022/12/05 09:22:58;;;;;;;12.65;6.10;;;;;;;;;;5028668;28;20052;-68
2022/12/05 09:25:27;;;;;;;15.75;6.50;;;;;;;;;;5019387;28;20045;-65
2022/12/05 09:27:57;;;;;;;16.88;5.88;;;;;;;;;;5028650;28;20064;-63
2022/12/05 09:30:28;;;;;;;18.15;6.70;;;;;;;;;;4979748;28;20057;-64
2022/12/05 09:32:58;;;;;;;16.27;6.57;;;;;;;;;;4995562;28;20057;-64
2022/12/05 09:35:28;;;;;;;16.00;6.90;;;;;;;;;;5028669;28;20045;-64
2022/12/05 09:37:57;;;;;;;23.08;7.90;;;;;;;;;;5028038;28;20062;-64
2022/12/05 09:40:29;;;;;;;22.08;8.20;;;;;;;;;;5010389;28;20045;-65
2022/12/05 09:43:06;;;;;;;29.55;10.10;;;;;;;;;;5028542;28;20057;-64
2022/12/05 09:45:45;;;;;;;38.15;11.98;;;;;;;;;;5028491;28;20053;-66
2022/12/05 09:48:18;;;;;;;34.92;11.48;;;;;;;;;;5028466;28;20045;-64
2022/12/05 09:51:01;;;;;;;40.15;11.65;;;;;;;;;;5028131;28;20057;-65
2022/12/05 09:53:38;;;;;;;29.83;10.90;;;;;;;;;;4979336;28;20061;-65
2022/12/05 09:56:13;;;;;;;32.70;11.15;;;;;;;;;;5028064;28;20060;-64
2022/12/05 09:58:50;;;;;;;30.65;10.52;;;;;;;;;;4980448;28;20061;-64
2022/12/05 10:01:40;;;;;;;22.02;9.32;;;;;;;;;;5028084;28;20057;-64
2022/12/05 10:04:28;;;;;;;20.42;8.65;;;;;;;;;;5046961;28;20060;-63
2022/12/05 10:07:29;;;;;;;14.57;6.90;;;;;;;;;;5048262;28;20040;-64
2022/12/05 10:10:24;;;;;;;18.15;6.68;;;;;;;;;;5027950;28;20455;-67
2022/12/05 10:12:59;;;;;;;16.17;6.20;;;;;;;;;;5027394;28;20045;-63
2022/12/05 10:15:42;;;;;;;15.52;8.10;;;;;;;;;;5042681;28;20045;-66
2022/12/05 10:18:37;;;;;;;14.65;6.00;;;;;;;;;;5073787;28;20045;-66
2022/12/05 10:21:17;;;;;;;14.27;6.07;;;;;;;;;;5054245;28;20048;-64
2022/12/05 10:24:01;;;;;;;13.43;6.18;;;;;;;;;;5055110;28;20071;-64
2022/12/05 10:26:45;;;;;;;13.07;6.55;;;;;;;;;;4998015;28;20610;-64
2022/12/05 10:29:57;;;;;;;12.95;6.35;;;;;;;;;;4998099;28;20048;-63
2022/12/05 10:32:56;;;;;;;14.48;6.38;;;;;;;;;;4969460;28;20084;-65
2022/12/05 10:35:35;;;;;;;11.85;6.43;;;;;;;;;;4930766;29;20067;-63
2022/12/05 10:38:27;;;;;;;9.38;5.85;;;;;;;;;;4930639;29;20563;-63
2022/12/05 10:41:05;;;;;;;10.98;5.72;;;;;;;;;;4930797;29;20055;-64
2022/12/05 10:43:38;;;;;;;10.55;5.93;;;;;;;;;;4914233;29;20055;-64
2022/12/05 10:46:10;;;;;;;12.80;7.15;;;;;;;;;;4911378;29;20067;-63
2022/12/05 10:48:45;;;;;;;12.70;6.82;;;;;;;;;;4911563;29;20067;-63
2022/12/05 10:51:17;;;;;;;13.75;8.05;;;;;;;;;;4913234;29;20052;-66
2022/12/05 10:53:50;;;;;;;14.23;6.85;;;;;;;;;;4915108;29;20412;-65
2022/12/05 10:56:50;;;;;;;9.77;4.85;;;;;;;;;;4915126;29;20063;-63
2022/12/05 10:59:45;;;;;;;19.08;8.18;;;;;;;;;;4915159;29;20064;-63
2022/12/05 11:02:31;;;;;;;12.32;6.47;;;;;;;;;;4899959;29;20052;-64
2022/12/05 11:05:02;;;;;;;11.25;6.03;;;;;;;;;;4914951;29;20054;-64
2022/12/05 11:07:33;;;;;;;9.88;4.95;;;;;;;;;;4988490;28;20437;-63
2022/12/05 11:10:24;;;;;;;10.77;4.90;;;;;;;;;;4943611;28;20066;-63
2022/12/05 11:12:57;;;;;;;12.18;5.40;;;;;;;;;;5034911;28;20080;-63
2022/12/05 11:15:31;;;;;;;11.50;5.20;;;;;;;;;;5017842;28;20057;-64
2022/12/05 11:18:25;;;;;;;14.48;6.03;;;;;;;;;;5050959;28;20049;-64
2022/12/05 11:20:56;;;;;;;10.25;5.28;;;;;;;;;;5034804;28;20053;-64
2022/12/05 11:23:30;;;;;;;11.27;6.63;;;;;;;;;;5066415;28;20059;-64
2022/12/05 11:26:00;;;;;;;14.38;8.05;;;;;;;;;;5058241;28;20056;-64
2022/12/05 11:28:35;;;;;;;12.20;6.97;;;;;;;;;;5093459;28;20059;-67
2022/12/05 11:31:25;;;;;;;13.32;6.25;;;;;;;;;;5058429;28;20048;-64
2022/12/05 11:34:30;;;;;;;15.30;6.57;;;;;;;;;;5093518;28;20051;-64
2022/12/05 11:37:24;;;;;;;13.48;6.60;;;;;;;;;;4990888;28;20502;-65
2022/12/05 11:39:54;;;;;;;12.10;7.45;;;;;;;;;;4991466;28;20171;-65
2022/12/05 11:42:45;;;;;;;12.88;6.70;;;;;;;;;;4991140;28;20054;-64
2022/12/05 11:45:37;;;;;;;;;;;;;;;;;;4975537;28;20062;-63
2022/12/05 11:48:13;;;;;;;11.38;5.30;;;;;;;;;;4971572;28;19922;-63
2022/12/05 11:51:12;;;;;;;10.10;5.13;;;;;;;;;;4984447;28;20057;-64
2022/12/05 11:53:54;;;;;;;11.88;6.25;;;;;;;;;;4933067;29;20066;-65
2022/12/05 11:56:42;;;;;;;9.70;5.47;;;;;;;;;;4929157;29;20055;-63
2022/12/05 11:59:31;;;;;;;11.75;5.97;;;;;;;;;;4933003;29;20055;-65
2022/12/05 12:02:27;;;;;;;11.63;6.32;;;;;;;;;;4932571;29;20059;-64
2022/12/05 12:05:21;;;;;;;14.75;7.38;;;;;;;;;;4885786;29;20060;-63
2022/12/05 12:08:09;;;;;;;11.43;4.88;;;;;;;;;;4932556;29;20059;-63
2022/12/05 12:10:42;;;;;;;10.32;4.80;;;;;;;;;;4884567;29;20447;-65
2022/12/05 12:13:29;;;;;;;12.07;6.40;;;;;;;;;;4905977;29;20055;-63
2022/12/05 12:16:39;;;;;;;7.47;4.25;;;;;;;;;;4955424;28;20418;-64
2022/12/05 12:19:40;;;;;;;7.32;4.57;;;;;;;;;;4931485;29;20075;-68
2022/12/05 12:22:15;;;;;;;8.55;4.60;;;;;;;;;;4931856;29;20070;-64
2022/12/05 12:25:31;;;;;;;7.05;4.47;;;;;;;;;;4941784;28;20062;-63
2022/12/05 12:28:17;;;;;;;11.70;5.25;;;;;;;;;;4934510;29;20059;-63
2022/12/05 12:31:00;;;;;;;7.70;4.82;;;;;;;;;;4941832;28;20188;-63
2022/12/05 12:33:59;;;;;;;7.38;4.07;;;;;;;;;;4951168;29;20415;-63
2022/12/05 12:36:42;;;;;;;8.38;4.63;;;;;;;;;;4931891;29;20066;-64
2022/12/05 12:39:49;;;;;;;7.43;3.65;;;;;;;;;;4915082;29;20064;-64
2022/12/05 12:42:40;;;;;;;8.30;4.47;;;;;;;;;;4931696;29;20039;-64
2022/12/05 12:45:33;;;;;;;7.10;4.15;;;;;;;;;;4921824;29;20523;-65
2022/12/05 12:48:17;;;;;;;7.38;3.90;;;;;;;;;;4922973;29;20055;-64
2022/12/05 12:50:53;;;;;;;10.23;4.00;;;;;;;;;;4913191;29;20059;-65
2022/12/05 12:53:28;;;;;;;7.18;3.80;;;;;;;;;;4916362;29;20067;-64
2022/12/05 12:56:24;;;;;;;4.93;3.20;;;;;;;;;;4971866;28;20061;-63
2022/12/05 12:58:57;;;;;;;6.18;3.58;;;;;;;;;;4996299;28;20046;-63
2022/12/05 13:01:52;;;;;;;7.43;4.10;;;;;;;;;;4941093;28;20050;-64
2022/12/05 13:04:38;;;;;;;5.88;3.00;;;;;;;;;;4988697;28;20060;-63
2022/12/05 13:07:23;;;;;;;5.40;3.33;;;;;;;;;;4994301;28;20042;-65
2022/12/05 13:10:06;;;;;;;5.22;3.25;;;;;;;;;;4989145;28;20050;-64
2022/12/05 13:12:39;;;;;;;5.07;3.67;;;;;;;;;;4990429;28;20051;-63
2022/12/05 13:15:32;;;;;;;5.75;3.95;;;;;;;;;;5070126;28;20403;-66
2022/12/05 13:18:04;;;;;;;5.68;3.60;;;;;;;;;;5046877;28;20056;-63
2022/12/05 13:20:35;;;;;;;6.63;3.50;;;;;;;;;;5028769;28;20044;-64
2022/12/05 13:23:12;;;;;;;4.15;3.00;;;;;;;;;;5078204;28;20063;-63
2022/12/05 13:25:44;;;;;;;6.40;3.45;;;;;;;;;;5078496;28;20071;-63
2022/12/05 13:28:31;;;;;;;13.23;8.23;;;;;;;;;;5068513;28;20064;-63
2022/12/05 13:31:06;;;;;;;6.70;3.38;;;;;;;;;;5035728;28;20092;-64
2022/12/05 13:33:43;;;;;;;6.15;3.45;;;;;;;;;;5074656;28;20048;-63
2022/12/05 13:42:50;;;;;;;;;;;;;;;;;;5088786;28;20068;-62
2022/12/05 13:45:33;;;;;;;3.90;2.88;;;;;;;;;;4989162;28;20015;-63
2022/12/05 13:48:21;;;;;;;4.38;2.70;;;;;;;;;;4953405;28;20051;-64
2022/12/05 13:51:22;;;;;;;3.80;1.88;;;;;;;;;;4925647;28;20529;-62
2022/12/05 13:54:23;;;;;;;3.20;2.00;;;;;;;;;;4874383;29;20540;-63
2022/12/05 13:57:00;;;;;;;6.72;4.28;;;;;;;;;;4874056;29;20057;-62
2022/12/05 14:00:21;;;;;;;6.00;2.72;;;;;;;;;;4865477;29;20597;-64
2022/12/05 14:03:04;;;;;;;4.30;2.72;;;;;;;;;;4859245;29;20060;-63
2022/12/05 14:05:35;;;;;;;2.67;1.83;;;;;;;;;;4828350;29;20053;-62
2022/12/05 14:08:36;;;;;;;4.07;2.13;;;;;;;;;;4874699;29;20466;-62
2022/12/05 14:11:10;;;;;;;5.07;2.17;;;;;;;;;;4874171;29;20057;-62
2022/12/05 14:13:43;;;;;;;3.42;2.38;;;;;;;;;;4837607;29;20564;-64
2022/12/05 14:16:25;;;;;;;2.50;2.00;;;;;;;;;;4909524;29;20078;-63
2022/12/05 14:19:11;;;;;;;3.55;2.38;;;;;;;;;;4950133;29;20055;-63
2022/12/05 14:22:22;;;;;;;4.32;2.13;;;;;;;;;;4899904;29;20059;-63
2022/12/05 14:25:13;;;;;;;3.05;1.98;;;;;;;;;;4882256;29;20572;-62
2022/12/05 14:28:01;;;;;;;5.57;2.20;;;;;;;;;;4795669;29;20585;-64
2022/12/05 14:31:08;;;;;;;5.88;3.05;;;;;;;;;;4826840;29;20066;-63
2022/12/05 14:33:38;;;;;;;4.10;2.30;;;;;;;;;;4876485;29;20048;-63
2022/12/05 14:36:18;;;;;;;4.38;1.80;;;;;;;;;;4877243;29;20084;-61
2022/12/05 14:38:48;;;;;;;2.42;1.90;;;;;;;;;;4877701;29;20068;-62
2022/12/05 14:41:34;;;;;;;3.83;1.77;;;;;;;;;;4877920;29;20087;-62
2022/12/05 14:44:18;;;;;;;2.20;1.48;;;;;;;;;;4862864;29;20110;-64
2022/12/05 14:46:50;;;;;;;2.33;1.55;;;;;;;;;;4877365;29;20053;-63
2022/12/05 14:49:56;;;;;;;2.83;1.65;;;;;;;;;;4840436;29;20077;-64
2022/12/05 14:52:29;;;;;;;2.67;1.85;;;;;;;;;;4839788;29;20054;-65
2022/12/05 14:55:07;;;;;;;4.72;1.60;;;;;;;;;;4839656;29;20062;-63
2022/12/05 14:57:47;;;;;;;2.20;1.48;;;;;;;;;;4840303;29;20079;-64
2022/12/05 15:00:22;;;;;;;1.85;1.35;;;;;;;;;;4840855;29;20058;-64
2022/12/05 15:02:54;;;;;;;2.60;1.80;;;;;;;;;;4840957;29;20053;-63
2022/12/05 15:05:32;;;;;;;2.00;1.42;;;;;;;;;;4878391;29;20535;-63
2022/12/05 15:08:04;;;;;;;2.47;2.10;;;;;;;;;;4904488;29;20055;-64
2022/12/05 15:10:51;;;;;;;5.18;1.90;;;;;;;;;;4926386;28;20466;-67
2022/12/05 15:13:27;;;;;;;2.67;1.17;;;;;;;;;;4984530;28;20529;-63
2022/12/05 15:16:04;;;;;;;1.77;1.23;;;;;;;;;;4968526;28;20051;-63
2022/12/05 15:18:51;;;;;;;2.05;1.70;;;;;;;;;;4957529;28;20150;-65
2022/12/05 15:21:24;;;;;;;2.13;1.55;;;;;;;;;;4933061;28;20054;-65
2022/12/05 15:23:55;;;;;;;2.25;1.23;;;;;;;;;;4917353;29;20058;-63
2022/12/05 15:26:53;;;;;;;1.95;1.17;;;;;;;;;;4915962;29;20063;-66
2022/12/05 15:29:26;;;;;;;1.77;1.30;;;;;;;;;;4913869;29;20052;-63
2022/12/05 15:31:58;;;;;;;2.33;1.38;;;;;;;;;;4906109;29;20094;-64
2022/12/05 15:34:30;;;;;;;4.07;1.75;;;;;;;;;;4914446;29;20052;-63
2022/12/05 15:37:15;;;;;;;3.80;1.10;;;;;;;;;;4928589;29;20059;-65
2022/12/05 15:39:52;;;;;;;;;;;;;;;;;;4959155;28;20518;-65
2022/12/05 15:42:30;;;;;;;1.92;1.60;;;;;;;;;;4981271;28;19930;-64
2022/12/05 15:45:13;;;;;;;2.03;1.08;;;;;;;;;;4958527;28;20545;-66
2022/12/05 15:47:45;;;;;;;3.22;1.67;;;;;;;;;;4970919;28;20051;-64
2022/12/05 15:50:30;;;;;;;3.60;1.10;;;;;;;;;;4932685;29;20625;-64
2022/12/05 15:53:17;;;;;;;2.75;1.08;;;;;;;;;;4933075;28;20432;-64
2022/12/05 15:55:53;;;;;;;2.00;1.38;;;;;;;;;;4947830;28;20070;-64